Terminal Aerodrome Forecast
Issued by NWS

Home | Current Version | Previous Version | Graphics & Text | Print | Product List | Glossary On
Versions: 1 2 3 4 5 6 7 8 9 10 11 12 13 14 15
000
FTUS43 KBIS 251400 AAA
TAFMOT
TAF AMD
KMOT 251408Z 2514/2612 VRB06KT P6SM SCT007 OVC010
     FM251900 21010KT P6SM OVC025
     FM252300 22011KT P6SM OVC070
     FM260300 27013G19KT P6SM BKN070=

USA.gov is the U.S. government's official web portal to all federal, state and local government web resources and services.